Time;durP1;ratioP1;P1;durP2;ratioP2;P2;SDS_P1;SDS_P2;PMS_P1;PMS_P2;Temp;Humidity;BMP_temperature;BMP_pressure;BME280_temperature;BME280_humidity;BME280_pressure;Samples;Min_cycle;Max_cycle;Signal;HPM_P1;HPM_P2
2021/05/27 00:00:30;;;;;;;;;;;;;;;15.49;64.87;97067.55;1726567;82;20487;-80
2021/05/27 00:02:58;;;;;;;;;;;;;;;15.49;65.05;97072.86;1740383;82;20519;-80
2021/05/27 00:05:25;;;;;;;;;;;;;;;15.49;65.25;97072.86;1741381;82;20472;-79
2021/05/27 00:07:52;;;;;;;;;;;;;;;15.48;64.42;97071.70;1741995;82;20507;-80
2021/05/27 00:10:21;;;;;;;;;;;;;;;15.42;65.05;97069.98;1717720;82;20255;-79
2021/05/27 00:12:48;;;;;;;;;;;;;;;15.43;65.09;97072.16;1738053;82;20483;-78
2021/05/27 00:15:14;;;;;;;;;;;;;;;15.39;63.96;97074.77;1741943;82;20151;-80
2021/05/27 00:17:41;;;;;;;;;;;;;;;15.32;64.48;97067.91;1742156;82;20147;-78
2021/05/27 00:20:09;;;;;;;;;;;;;;;15.30;64.39;97062.76;1740048;82;20190;-79
2021/05/27 00:22:36;;;;;;;;;;;;;;;15.25;64.81;97058.89;1741848;82;20498;-79
2021/05/27 00:25:03;;;;;;;;;;;;;;;15.19;65.02;97062.17;1741840;82;20498;-79
2021/05/27 00:27:30;;;;;;;;;;;;;;;15.12;63.90;97060.61;1740853;82;20217;-77
2021/05/27 00:29:56;;;;;;;;;;;;;;;15.08;64.83;97068.56;1740615;82;20519;-79
2021/05/27 00:32:22;;;;;;;;;;;;;;;15.04;64.68;97071.98;1747533;81;20154;-79
2021/05/27 00:34:48;;;;;;;;;;;;;;;15.01;65.58;97060.84;1749119;82;20144;-79
2021/05/27 00:37:14;;;;;;;;;;;;;;;14.98;65.07;97064.64;1750818;81;20160;-80
2021/05/27 00:39:40;;;;;;;;;;;;;;;14.95;65.23;97058.30;1750837;81;20156;-79
2021/05/27 00:42:06;;;;;;;;;;;;;;;14.88;64.61;97060.75;1752163;81;20148;-79
2021/05/27 00:44:33;;;;;;;;;;;;;;;14.84;64.12;97060.69;1749685;82;20487;-78
2021/05/27 00:47:01;;;;;;;;;;;;;;;14.78;64.77;97058.66;1751049;82;20179;-78
2021/05/27 00:49:28;;;;;;;;;;;;;;;14.75;65.98;97063.78;1752657;82;20162;-78
2021/05/27 00:51:55;;;;;;;;;;;;;;;14.73;66.01;97060.43;1752740;82;20147;-79
2021/05/27 00:54:22;;;;;;;;;;;;;;;14.72;66.04;97055.25;1743578;82;20172;-80
2021/05/27 00:56:50;;;;;;;;;;;;;;;14.72;67.02;97055.25;1749135;81;20173;-81
2021/05/27 00:59:16;;;;;;;;;;;;;;;14.71;65.40;97053.61;1751874;82;20150;-79
2021/05/27 01:01:43;;;;;;;;;;;;;;;14.71;66.40;97052.29;1736147;82;20563;-79
2021/05/27 01:04:09;;;;;;;;;;;;;;;14.68;66.51;97044.97;1748939;81;20192;-80
2021/05/27 01:06:35;;;;;;;;;;;;;;;14.67;66.83;97045.09;1748083;81;20182;-83
2021/05/27 01:09:04;;;;;;;;;;;;;;;14.65;65.81;97045.22;1743068;82;20162;-81
2021/05/27 01:11:31;;;;;;;;;;;;;;;14.63;65.94;97052.49;1721084;82;20170;-80
2021/05/27 01:14:00;;;;;;;;;;;;;;;14.60;65.84;97051.48;1748730;82;20247;-84
2021/05/27 01:16:27;;;;;;;;;;;;;;;14.60;65.84;97054.61;1748480;81;20511;-78
2021/05/27 01:18:54;;;;;;;;;;;;;;;14.57;68.95;97048.30;1747940;82;20162;-79
2021/05/27 01:21:23;;;;;;;;;;;;;;;14.56;68.38;97048.77;1747992;82;20142;-81
2021/05/27 01:23:50;;;;;;;;;;;;;;;14.55;66.42;97055.56;1747935;82;20409;-80
2021/05/27 01:26:17;;;;;;;;;;;;;;;14.54;66.78;97060.02;1752931;82;20483;-79
2021/05/27 01:28:45;;;;;;;;;;;;;;;14.55;67.47;97049.75;1754094;82;20221;-82
2021/05/27 01:31:12;;;;;;;;;;;;;;;14.53;67.71;97053.89;1751830;82;20180;-82
2021/05/27 01:33:39;;;;;;;;;;;;;;;14.53;67.07;97055.70;1751883;82;20151;-79
2021/05/27 01:36:09;;;;;;;;;;;;;;;14.52;67.75;97046.09;1719937;81;20145;-82
2021/05/27 01:38:38;;;;;;;;;;;;;;;14.50;67.42;97044.91;1757680;81;20504;-80
2021/05/27 01:41:06;;;;;;;;;;;;;;;14.49;66.96;97047.71;1754168;81;20191;-80
2021/05/27 01:43:33;;;;;;;;;;;;;;;14.45;67.53;97051.63;1756522;82;20131;-79
2021/05/27 01:45:59;;;;;;;;;;;;;;;14.41;66.50;97051.09;1749475;81;20514;-80
2021/05/27 01:48:25;;;;;;;;;;;;;;;14.39;67.62;97042.45;1749384;81;20475;-79
2021/05/27 01:50:51;;;;;;;;;;;;;;;14.35;67.60;97047.22;1747259;82;20494;-78
2021/05/27 01:53:25;;;;;;;;;;;;;;;14.32;67.75;97043.56;1722775;82;20152;-78
2021/05/27 01:55:51;;;;;;;;;;;;;;;14.29;67.75;97045.67;1745052;82;20215;-80
2021/05/27 01:58:19;;;;;;;;;;;;;;;14.23;68.09;97045.77;1747436;82;20151;-77
2021/05/27 02:00:46;;;;;;;;;;;;;;;14.20;68.49;97042.90;1745728;82;20483;-82
2021/05/27 02:03:13;;;;;;;;;;;;;;;14.18;68.60;97042.71;1748527;81;20510;-80
2021/05/27 02:05:41;;;;;;;;;;;;;;;14.16;68.43;97044.67;1747878;82;20172;-78
2021/05/27 02:08:09;;;;;;;;;;;;;;;14.13;67.79;97039.68;1749488;82;20152;-79
2021/05/27 02:10:37;;;;;;;;;;;;;;;14.12;68.50;97039.33;1746538;82;20206;-79
2021/05/27 02:13:03;;;;;;;;;;;;;;;14.10;69.14;97034.66;1746693;82;20200;-81
2021/05/27 02:15:30;;;;;;;;;;;;;;;14.09;69.14;97035.64;1749547;81;20144;-85
2021/05/27 02:17:56;;;;;;;;;;;;;;;14.07;67.61;97037.13;1749605;81;20484;-80
2021/05/27 02:20:23;;;;;;;;;;;;;;;14.06;69.67;97037.59;1725310;82;20515;-77
2021/05/27 02:22:49;;;;;;;;;;;;;;;14.06;66.58;97032.80;1745758;82;20476;-77
2021/05/27 02:25:20;;;;;;;;;;;;;;;14.05;64.87;97036.42;1744913;82;20486;-79
2021/05/27 02:27:49;;;;;;;;;;;;;;;14.03;64.96;97043.21;1748676;82;20160;-78
2021/05/27 02:30:17;;;;;;;;;;;;;;;14.03;67.85;97042.36;1749295;82;20162;-77
2021/05/27 02:32:44;;;;;;;;;;;;;;;14.05;68.22;97046.55;1719952;83;20172;-79
2021/05/27 02:35:11;;;;;;;;;;;;;;;14.09;68.41;97035.64;1727722;82;20171;-80
2021/05/27 02:37:38;;;;;;;;;;;;;;;14.11;67.78;97038.48;1727776;82;20188;-79
2021/05/27 02:40:06;;;;;;;;;;;;;;;14.16;67.70;97032.73;1725138;82;20162;-77
2021/05/27 02:42:33;;;;;;;;;;;;;;;14.21;68.77;97034.47;1736163;82;20160;-77
2021/05/27 02:45:01;;;;;;;;;;;;;;;14.25;68.23;97033.17;1740726;82;20205;-79
2021/05/27 02:47:27;;;;;;;;;;;;;;;14.27;67.80;97036.52;1740656;82;20167;-77
2021/05/27 02:49:54;;;;;;;;;;;;;;;14.31;67.47;97037.91;1743912;82;20169;-78
2021/05/27 02:52:20;;;;;;;;;;;;;;;14.33;68.12;97038.60;1722866;82;20170;-79
2021/05/27 02:54:46;;;;;;;;;;;;;;;14.34;68.01;97040.24;1746696;82;20150;-83
2021/05/27 02:57:12;;;;;;;;;;;;;;;14.37;67.92;97038.63;1745707;82;20292;-80
2021/05/27 02:59:40;;;;;;;;;;;;;;;14.40;67.89;97042.80;1746861;82;20276;-80
2021/05/27 03:02:07;;;;;;;;;;;;;;;14.43;67.54;97040.36;1743397;82;20182;-81
2021/05/27 03:04:35;;;;;;;;;;;;;;;14.46;68.21;97038.25;1738919;82;20204;-82
2021/05/27 03:07:01;;;;;;;;;;;;;;;14.50;68.02;97039.59;1740707;82;20135;-79
2021/05/27 03:09:27;;;;;;;;;;;;;;;14.56;68.43;97041.33;1724690;82;20185;-79
2021/05/27 03:11:54;;;;;;;;;;;;;;;14.59;68.83;97044.51;1733977;82;20191;-78
2021/05/27 03:14:21;;;;;;;;;;;;;;;14.53;67.74;97051.24;1745345;82;20161;-81
2021/05/27 03:16:49;;;;;;;;;;;;;;;14.48;66.97;97038.08;1746528;82;20146;-78
2021/05/27 03:19:16;;;;;;;;;;;;;;;14.48;68.14;97036.76;1743319;82;20146;-79
2021/05/27 03:21:43;;;;;;;;;;;;;;;14.55;68.52;97035.17;1746090;82;20158;-81
2021/05/27 03:24:10;;;;;;;;;;;;;;;14.66;68.03;97039.45;1722376;82;20158;-79
2021/05/27 03:26:37;;;;;;;;;;;;;;;14.78;68.31;97044.06;1746820;82;20206;-79
2021/05/27 03:29:03;;;;;;;;;;;;;;;14.87;68.26;97044.48;1746608;82;20154;-80
2021/05/27 03:31:29;;;;;;;;;;;;;;;14.93;67.74;97050.50;1741422;82;20231;-79
2021/05/27 03:33:55;;;;;;;;;;;;;;;14.98;68.19;97051.37;1742578;82;20158;-79
2021/05/27 03:36:21;;;;;;;;;;;;;;;15.02;68.41;97045.26;1757205;80;20173;-79
2021/05/27 03:38:49;;;;;;;;;;;;;;;15.04;68.20;97041.97;1749087;82;20184;-78
2021/05/27 03:41:16;;;;;;;;;;;;;;;15.07;68.29;97043.00;1748021;82;20171;-78
2021/05/27 03:43:43;;;;;;;;;;;;;;;15.12;68.11;97044.69;1680035;83;20172;-80
2021/05/27 03:46:11;;;;;;;;;;;;;;;15.18;67.92;97045.90;1773540;80;20158;-79
2021/05/27 03:48:38;;;;;;;;;;;;;;;15.22;68.02;97046.77;1745155;82;20487;-78
2021/05/27 03:51:04;;;;;;;;;;;;;;;15.27;67.88;97041.81;1745123;82;20507;-78
2021/05/27 03:53:32;;;;;;;;;;;;;;;15.31;67.31;97042.36;1749774;82;20177;-80
2021/05/27 03:56:00;;;;;;;;;;;;;;;15.38;67.16;97047.87;1735461;82;20177;-81
2021/05/27 04:01:12;;;;;;;;;;;;;;;15.43;67.22;97049.58;1710036;81;20448;-80
2021/05/27 04:09:26;;;;;;;;;;;;;;;16.43;66.10;97051.78;1759702;80;20474;-82
2021/05/27 04:12:44;;;;;;;;;;;;;;;16.95;64.70;97052.58;1757615;80;20490;-79
2021/05/27 04:14:20;;;;;;;;;;;;;;;17.44;64.08;97053.93;1754818;82;20149;-81
2021/05/27 04:16:46;;;;;;;;;;;;;;;17.84;62.57;97050.55;1759704;80;20146;-82
2021/05/27 04:19:12;;;;;;;;;;;;;;;18.27;61.21;97051.09;1745337;82;20504;-81
2021/05/27 04:21:38;;;;;;;;;;;;;;;18.74;60.51;97046.70;1752899;80;20490;-79
2021/05/27 04:24:05;;;;;;;;;;;;;;;19.13;59.39;97050.30;1736933;82;20128;-79
2021/05/27 04:26:31;;;;;;;;;;;;;;;19.56;59.24;97046.58;1750552;80;20195;-79
2021/05/27 04:28:57;;;;;;;;;;;;;;;20.05;57.30;97041.25;1728676;83;20159;-78
2021/05/27 04:31:23;;;;;;;;;;;;;;;20.51;55.71;97044.73;1728731;83;20155;-79
2021/05/27 04:33:54;;;;;;;;;;;;;;;20.95;53.79;97038.94;1728853;83;20166;-79
2021/05/27 04:36:21;;;;;;;;;;;;;;;21.39;52.60;97040.57;1721539;80;20156;-78
2021/05/27 04:38:49;;;;;;;;;;;;;;;21.82;52.89;97041.03;1773477;80;20219;-81
2021/05/27 04:41:16;;;;;;;;;;;;;;;22.17;51.14;97040.20;1765517;81;20162;-80
2021/05/27 04:43:43;;;;;;;;;;;;;;;22.50;47.87;97041.73;1750946;82;20154;-78
2021/05/27 04:46:09;;;;;;;;;;;;;;;22.92;47.06;97037.62;1749327;82;20502;-80
2021/05/27 04:48:36;;;;;;;;;;;;;;;23.34;47.06;97033.46;1771084;80;20136;-79
2021/05/27 04:51:03;;;;;;;;;;;;;;;23.70;51.41;97037.08;1770735;80;20154;-79
2021/05/27 04:53:29;;;;;;;;;;;;;;;23.94;47.61;97036.13;1716012;83;20189;-79
2021/05/27 04:55:57;;;;;;;;;;;;;;;24.30;44.35;97033.98;1716128;83;20151;-79
2021/05/27 04:58:23;;;;;;;;;;;;;;;24.71;43.08;97040.05;1765426;80;20163;-79
2021/05/27 05:00:50;;;;;;;;;;;;;;;25.09;44.39;97041.36;1768596;80;20518;-80
2021/05/27 05:03:17;;;;;;;;;;;;;;;25.51;41.92;97040.06;1730794;82;20192;-79
2021/05/27 05:05:43;;;;;;;;;;;;;;;25.83;42.53;97032.72;1735857;82;20180;-78
2021/05/27 05:08:09;;;;;;;;;;;;;;;26.13;42.56;97037.41;1748535;80;20162;-79
2021/05/27 05:10:37;;;;;;;;;;;;;;;26.49;40.71;97041.68;1755785;80;20142;-78
2021/05/27 05:13:05;;;;;;;;;;;;;;;26.80;38.84;97039.88;1741766;82;20180;-80
2021/05/27 05:15:36;;;;;;;;;;;;;;;27.23;41.86;97035.30;1740479;82;20210;-78
2021/05/27 05:18:07;;;;;;;;;;;;;;;27.64;36.12;97043.09;1726561;82;20211;-75
2021/05/27 05:20:45;;;;;;;;;;;;;;;28.04;35.16;97041.55;1757377;80;20204;-77
2021/05/27 05:23:12;;;;;;;;;;;;;;;28.29;35.43;97041.86;1762247;80;20188;-78
2021/05/27 05:25:39;;;;;;;;;;;;;;;28.44;35.24;97036.75;1758742;80;20187;-79
2021/05/27 05:28:06;;;;;;;;;;;;;;;28.77;33.81;97035.79;1747092;80;20179;-79
2021/05/27 05:30:33;;;;;;;;;;;;;;;29.11;32.32;97044.00;1758242;81;20148;-79
2021/05/27 05:32:59;;;;;;;;;;;;;;;29.38;33.65;97045.59;1759580;80;20158;-79
2021/05/27 05:35:27;;;;;;;;;;;;;;;29.52;31.54;97043.37;1739837;80;20492;-80
2021/05/27 05:37:53;;;;;;;;;;;;;;;29.95;31.82;97044.31;1785882;80;20491;-78
2021/05/27 05:40:24;;;;;;;;;;;;;;;30.25;30.69;97040.38;1783338;79;20261;-79
2021/05/27 05:42:51;;;;;;;;;;;;;;;30.50;29.90;97039.34;1780654;79;20235;-81
2021/05/27 05:45:18;;;;;;;;;;;;;;;30.77;30.71;97048.66;1779781;80;20153;-79
2021/05/27 05:47:46;;;;;;;;;;;;;;;30.96;30.04;97049.12;1783498;79;20215;-80
2021/05/27 05:50:12;;;;;;;;;;;;;;;31.14;33.65;97053.42;1783929;80;20171;-79
2021/05/27 05:52:38;;;;;;;;;;;;;;;31.39;29.72;97056.93;1783991;80;20215;-79
2021/05/27 05:55:06;;;;;;;;;;;;;;;31.69;28.20;97060.19;1782414;79;20147;-80
2021/05/27 05:57:32;;;;;;;;;;;;;;;31.78;27.75;97060.79;1785929;80;20335;-78
2021/05/27 05:59:58;;;;;;;;;;;;;;;31.99;28.13;97060.94;1786799;79;20144;-79
2021/05/27 06:02:24;;;;;;;;;;;;;;;32.09;31.11;97070.55;1781403;80;20508;-79
2021/05/27 06:04:51;;;;;;;;;;;;;;;32.07;28.04;97067.81;1765155;79;20174;-79
2021/05/27 06:07:28;;;;;;;;;;;;;;;31.98;30.42;97062.02;1767789;79;20140;-79
2021/05/27 06:09:55;;;;;;;;;;;;;;;31.52;28.79;97066.56;1782655;79;20247;-77
2021/05/27 06:12:21;;;;;;;;;;;;;;;31.27;27.90;97065.27;1782841;80;20226;-80
2021/05/27 06:14:47;;;;;;;;;;;;;;;31.32;28.17;97060.41;1786916;80;20222;-79
2021/05/27 06:17:13;;;;;;;;;;;;;;;31.53;27.67;97056.48;1782256;79;20160;-79
2021/05/27 06:19:40;;;;;;;;;;;;;;;31.73;27.67;97061.32;1782039;79;20144;-76
2021/05/27 06:22:08;;;;;;;;;;;;;;;31.84;27.02;97048.58;1787053;79;20138;-78
2021/05/27 06:24:41;;;;;;;;;;;;;;;31.97;28.03;97052.75;1771770;80;20147;-80
2021/05/27 06:27:07;;;;;;;;;;;;;;;32.06;27.03;97054.70;1778376;80;20289;-79
2021/05/27 06:29:35;;;;;;;;;;;;;;;32.08;29.76;97055.27;1772289;80;20183;-79
2021/05/27 06:32:01;;;;;;;;;;;;;;;31.75;27.19;97046.34;1753232;79;20146;-79
2021/05/27 06:34:27;;;;;;;;;;;;;;;31.91;26.98;97052.73;1746532;82;20144;-80
2021/05/27 06:36:53;;;;;;;;;;;;;;;32.04;26.35;97048.72;1745954;80;20167;-80
2021/05/27 06:39:20;;;;;;;;;;;;;;;32.12;26.62;97054.75;1743878;82;20158;-80
2021/05/27 06:41:46;;;;;;;;;;;;;;;32.14;27.09;97049.86;1740735;81;20481;-77
2021/05/27 06:44:12;;;;;;;;;;;;;;;32.17;26.61;97050.68;1740306;82;20170;-81
2021/05/27 06:46:39;;;;;;;;;;;;;;;32.19;25.75;97055.33;1740653;82;20151;-81
2021/05/27 06:49:05;;;;;;;;;;;;;;;32.31;25.96;97049.17;1721248;82;20192;-80
2021/05/27 06:51:32;;;;;;;;;;;;;;;32.37;25.98;97051.37;1716290;82;20196;-80
2021/05/27 06:54:00;;;;;;;;;;;;;;;32.60;25.76;97048.75;1715532;84;20180;-80
2021/05/27 06:56:26;;;;;;;;;;;;;;;32.54;28.35;97047.91;1715581;84;20508;-81
2021/05/27 06:58:52;;;;;;;;;;;;;;;31.86;25.50;97050.52;1715616;84;20128;-78
2021/05/27 07:01:18;;;;;;;;;;;;;;;31.61;26.18;97047.30;1722249;82;20186;-78
2021/05/27 07:03:44;;;;;;;;;;;;;;;31.65;28.59;97054.41;1746078;82;20179;-79
2021/05/27 07:06:10;;;;;;;;;;;;;;;31.50;28.79;97049.66;1746648;82;20237;-80
2021/05/27 07:08:36;;;;;;;;;;;;;;;31.21;27.66;97055.95;1746701;82;20151;-79
2021/05/27 07:11:03;;;;;;;;;;;;;;;30.72;27.66;97048.61;1744107;82;20167;-78
2021/05/27 07:13:29;;;;;;;;;;;;;;;30.74;28.17;97047.80;1746073;82;20221;-79
2021/05/27 07:15:55;;;;;;;;;;;;;;;30.87;28.15;97043.85;1746606;82;20245;-79
2021/05/27 07:18:20;;;;;;;;;;;;;;;30.98;28.79;97039.64;1746514;82;20146;-79
2021/05/27 07:20:46;;;;;;;;;;;;;;;30.40;28.29;97033.77;1744338;82;20501;-79
2021/05/27 07:23:12;;;;;;;;;;;;;;;29.99;29.14;97039.48;1746501;82;20153;-79
2021/05/27 07:25:39;;;;;;;;;;;;;;;29.67;31.68;97034.66;1729341;82;20233;-80
2021/05/27 07:28:04;;;;;;;;;;;;;;;29.24;30.41;97023.86;1715877;84;20236;-80
2021/05/27 07:30:32;;;;;;;;;;;;;;;28.25;31.83;97032.55;1732510;81;20151;-80
2021/05/27 07:32:58;;;;;;;;;;;;;;;27.88;32.65;97035.80;1744948;81;20208;-80
2021/05/27 07:35:26;;;;;;;;;;;;;;;27.08;33.91;97033.84;1741169;81;20173;-79
2021/05/27 07:37:53;;;;;;;;;;;;;;;27.40;34.05;97026.80;1724020;82;20194;-80
2021/05/27 07:40:19;;;;;;;;;;;;;;;27.48;34.02;97023.48;1730320;81;20130;-80
2021/05/27 07:42:45;;;;;;;;;;;;;;;27.39;33.49;97022.45;1719660;82;20168;-80
2021/05/27 07:45:12;;;;;;;;;;;;;;;27.37;33.70;97023.75;1713597;84;20188;-80
2021/05/27 07:47:37;;;;;;;;;;;;;;;27.25;33.90;97015.08;1713527;83;20140;-78
2021/05/27 07:50:06;;;;;;;;;;;;;;;27.54;34.44;97019.83;1713817;84;20231;-83
2021/05/27 07:52:32;;;;;;;;;;;;;;;27.99;34.22;97019.78;1735136;82;20498;-82
2021/05/27 07:54:58;;;;;;;;;;;;;;;27.96;33.92;97018.38;1744517;82;20170;-77
2021/05/27 07:57:24;;;;;;;;;;;;;;;27.59;34.55;96996.97;1742356;82;20203;-79
2021/05/27 07:59:52;;;;;;;;;;;;;;;27.65;34.35;97016.31;1744331;82;20565;-78
2021/05/27 08:02:18;;;;;;;;;;;;;;;27.14;34.73;97013.70;1739406;82;20172;-78
2021/05/27 08:04:44;;;;;;;;;;;;;;;26.74;35.59;97018.59;1713748;82;20165;-80
2021/05/27 08:07:10;;;;;;;;;;;;;;;26.34;36.14;97017.23;1733823;82;20150;-80
2021/05/27 08:09:36;;;;;;;;;;;;;;;25.81;36.92;97017.27;1744587;82;20169;-79
2021/05/27 08:12:03;;;;;;;;;;;;;;;25.66;37.54;97009.52;1744363;82;20165;-78
2021/05/27 08:14:29;;;;;;;;;;;;;;;25.69;38.00;97017.69;1742902;82;20489;-79
2021/05/27 08:16:55;;;;;;;;;;;;;;;24.99;39.45;97007.85;1744747;82;20150;-81
2021/05/27 08:19:22;;;;;;;;;;;;;;;25.18;39.04;97009.58;1744594;82;20138;-80
2021/05/27 08:21:48;;;;;;;;;;;;;;;25.23;39.26;97017.02;1737630;82;20158;-81
2021/05/27 08:24:14;;;;;;;;;;;;;;;25.33;39.86;97009.77;1743678;82;20186;-78
2021/05/27 08:26:40;;;;;;;;;;;;;;;25.78;38.76;97004.73;1742991;82;20150;-79
2021/05/27 08:29:06;;;;;;;;;;;;;;;26.09;38.41;97001.62;1743526;82;20154;-81
2021/05/27 08:31:38;;;;;;;;;;;;;;;26.24;38.13;97003.44;1746033;80;20228;-80
2021/05/27 08:34:02;;;;;;;;;;;;;;;25.80;38.31;97003.46;1761754;79;20162;-80
2021/05/27 08:36:29;;;;;;;;;;;;;;;25.60;38.69;97000.97;1742266;81;20139;-82
2021/05/27 08:38:55;;;;;;;;;;;;;;;25.59;38.79;97002.01;1760236;81;20163;-80
2021/05/27 08:41:21;;;;;;;;;;;;;;;25.56;38.92;96997.89;1757450;81;20181;-81
2021/05/27 08:43:48;;;;;;;;;;;;;;;25.79;38.90;97002.34;1756222;82;20478;-80
2021/05/27 08:46:15;;;;;;;;;;;;;;;25.52;38.79;97008.81;1756140;82;20154;-80
2021/05/27 08:48:42;;;;;;;;;;;;;;;25.23;39.68;97003.00;1742877;82;20158;-79
2021/05/27 08:51:10;;;;;;;;;;;;;;;25.31;39.54;97005.11;1758554;81;20165;-78
2021/05/27 08:53:36;;;;;;;;;;;;;;;25.09;39.95;97004.16;1758757;82;20129;-79
2021/05/27 08:56:03;;;;;;;;;;;;;;;24.68;40.33;96999.55;1761417;80;20165;-79
2021/05/27 08:58:29;;;;;;;;;;;;;;;24.40;41.16;96991.26;1762671;81;20145;-78
2021/05/27 09:00:55;;;;;;;;;;;;;;;24.45;41.96;96994.66;1761455;81;20549;-79
2021/05/27 09:03:23;;;;;;;;;;;;;;;24.63;41.50;96993.42;1758588;82;20174;-78
2021/05/27 09:06:00;;;;;;;;;;;;;;;24.56;41.22;96996.65;1758643;82;20863;-81
2021/05/27 09:08:30;;;;;;;;;;;;;;;24.32;42.01;96985.59;1758650;82;20216;-80
2021/05/27 09:11:03;;;;;;;;;;;;;;;24.43;41.75;96992.16;1767299;80;20198;-81
2021/05/27 09:13:29;;;;;;;;;;;;;;;24.40;41.67;96990.42;1785463;80;20555;-82
2021/05/27 09:16:08;;;;;;;;;;;;;;;24.33;41.67;96981.02;1791881;79;20139;-81
2021/05/27 09:18:38;;;;;;;;;;;;;;;24.35;41.89;96980.28;1782750;80;20543;-82
2021/05/27 09:21:07;;;;;;;;;;;;;;;24.42;41.57;96976.22;1758961;81;20185;-82
2021/05/27 09:23:35;;;;;;;;;;;;;;;24.50;41.62;96970.58;1758152;80;20169;-79
2021/05/27 09:26:14;;;;;;;;;;;;;;;24.51;41.41;96974.09;1760840;81;20150;-79
2021/05/27 09:28:41;;;;;;;;;;;;;;;24.20;41.96;96973.82;1761110;81;20224;-79
2021/05/27 09:31:10;;;;;;;;;;;;;;;24.01;41.87;96968.30;1761678;80;20186;-78
2021/05/27 09:33:38;;;;;;;;;;;;;;;23.65;42.68;96957.50;1762149;80;20148;-80
2021/05/27 09:36:07;;;;;;;;;;;;;;;23.68;42.79;96961.63;1769162;80;20147;-79
2021/05/27 09:38:38;;;;;;;;;;;;;;;23.62;43.13;96960.60;1777399;80;20466;-79
2021/05/27 09:41:22;;;;;;;;;;;;;;;23.69;42.42;96951.17;1764108;81;20255;-78
2021/05/27 09:43:56;;;;;;;;;;;;;;;23.85;42.24;96952.59;1777755;81;20155;-79
2021/05/27 09:46:24;;;;;;;;;;;;;;;24.00;41.84;96953.19;1753447;81;20303;-78
2021/05/27 09:49:05;;;;;;;;;;;;;;;23.90;41.96;96954.12;1751410;82;20196;-79
2021/05/27 09:51:31;;;;;;;;;;;;;;;24.02;41.93;96951.64;1751656;82;20192;-79
2021/05/27 09:53:58;;;;;;;;;;;;;;;24.25;41.53;96943.06;1751446;82;20479;-79
2021/05/27 09:56:42;;;;;;;;;;;;;;;24.36;41.50;96940.20;1751436;82;20462;-78
2021/05/27 09:59:11;;;;;;;;;;;;;;;24.35;41.75;96945.81;1753114;82;20221;-80
2021/05/27 10:01:38;;;;;;;;;;;;;;;24.15;41.99;96938.11;1757466;80;20157;-79
2021/05/27 10:04:12;;;;;;;;;;;;;;;24.15;41.93;96941.34;1772706;80;20509;-79
2021/05/27 10:06:39;;;;;;;;;;;;;;;24.30;42.07;96933.80;1733118;81;20558;-81
2021/05/27 10:09:08;;;;;;;;;;;;;;;24.19;41.14;96938.51;1766380;80;20155;-79
2021/05/27 10:11:36;;;;;;;;;;;;;;;24.01;41.60;96936.53;1765700;80;20157;-78
2021/05/27 10:14:03;;;;;;;;;;;;;;;23.94;41.94;96932.52;1749636;80;20474;-82
2021/05/27 10:16:29;;;;;;;;;;;;;;;24.26;42.06;96929.91;1755358;81;20142;-79
2021/05/27 10:18:58;;;;;;;;;;;;;;;24.72;41.44;96926.64;1757039;80;20526;-82
2021/05/27 10:21:25;;;;;;;;;;;;;;;24.79;40.63;96917.98;1755976;80;20262;-80
2021/05/27 10:23:54;;;;;;;;;;;;;;;24.85;41.12;96920.33;1753172;80;20166;-83
2021/05/27 10:26:20;;;;;;;;;;;;;;;24.86;41.64;96913.08;1751437;82;20506;-78
2021/05/27 10:28:50;;;;;;;;;;;;;;;24.89;41.68;96910.77;1750818;80;20170;-80
2021/05/27 10:31:18;;;;;;;;;;;;;;;25.10;41.64;96912.79;1775661;80;20160;-80
2021/05/27 10:33:44;;;;;;;;;;;;;;;25.40;41.07;96908.91;1754170;82;20193;-80
2021/05/27 10:36:10;;;;;;;;;;;;;;;25.49;39.92;96913.47;1754518;81;20158;-82
2021/05/27 10:38:45;;;;;;;;;;;;;;;25.53;40.44;96913.33;1761490;81;20143;-82
2021/05/27 10:41:20;;;;;;;;;;;;;;;25.55;39.74;96907.20;1761147;81;20498;-79
2021/05/27 10:44:06;;;;;;;;;;;;;;;25.79;40.46;96903.28;1763026;80;20160;-79
2021/05/27 10:46:35;;;;;;;;;;;;;;;25.92;39.87;96903.66;1743654;80;20150;-82
2021/05/27 10:49:01;;;;;;;;;;;;;;;25.92;40.02;96898.25;1762504;80;20154;-82
2021/05/27 10:51:34;;;;;;;;;;;;;;;26.02;40.17;96885.05;1762887;80;20183;-82
2021/05/27 10:54:08;;;;;;;;;;;;;;;25.92;40.05;96890.16;1762662;81;20159;-81
2021/05/27 10:56:38;;;;;;;;;;;;;;;25.80;40.14;96896.03;1762879;81;20164;-83
2021/05/27 10:59:09;;;;;;;;;;;;;;;25.55;39.54;96898.26;1762715;81;20204;-80
2021/05/27 11:01:41;;;;;;;;;;;;;;;25.18;40.41;96892.78;1760342;81;20165;-82
2021/05/27 11:04:10;;;;;;;;;;;;;;;25.12;41.08;96886.94;1760848;80;20280;-79
2021/05/27 11:06:38;;;;;;;;;;;;;;;25.02;41.36;96886.08;1767451;80;20178;-80
2021/05/27 11:09:15;;;;;;;;;;;;;;;24.96;41.06;96890.51;1762560;81;20486;-79
2021/05/27 11:11:46;;;;;;;;;;;;;;;24.96;40.77;96889.16;1774675;80;20185;-81
2021/05/27 11:14:19;;;;;;;;;;;;;;;24.82;40.51;96888.45;1766038;80;20147;-79
2021/05/27 11:17:07;;;;;;;;;;;;;;;24.77;41.19;96877.48;1783599;80;20208;-79
2021/05/27 11:19:52;;;;;;;;;;;;;;;24.71;41.30;96878.37;1763138;80;20220;-81
2021/05/27 11:22:37;;;;;;;;;;;;;;;24.56;41.56;96886.20;1758505;80;20174;-79
2021/05/27 11:25:16;;;;;;;;;;;;;;;24.42;41.98;96884.11;1757525;81;20224;-80
2021/05/27 11:27:50;;;;;;;;;;;;;;;24.32;41.87;96875.67;1756883;81;20556;-80
2021/05/27 11:30:26;;;;;;;;;;;;;;;24.27;42.30;96874.98;1738361;81;20222;-81
2021/05/27 11:33:02;;;;;;;;;;;;;;;24.11;42.95;96875.49;1762731;81;20265;-81
2021/05/27 11:35:30;;;;;;;;;;;;;;;23.87;43.51;96877.86;1757248;80;20201;-81
2021/05/27 11:37:57;;;;;;;;;;;;;;;23.77;43.75;96880.98;1749013;80;20498;-80
2021/05/27 11:40:26;;;;;;;;;;;;;;;23.72;44.23;96876.78;1745261;82;20203;-79
2021/05/27 11:42:53;;;;;;;;;;;;;;;23.64;44.59;96875.67;1740380;82;20151;-83
2021/05/27 11:45:22;;;;;;;;;;;;;;;23.58;44.76;96870.62;1740686;82;20190;-78
2021/05/27 11:48:24;;;;;;;;;;;;;;;23.57;44.90;96866.27;1741131;82;20542;-83
2021/05/27 11:50:45;;;;;;;;;;;;;;;23.75;44.63;96868.30;1741717;82;20184;-81
2021/05/27 11:53:11;;;;;;;;;;;;;;;23.95;44.19;96874.95;1736163;82;20158;-81
2021/05/27 11:55:38;;;;;;;;;;;;;;;24.00;43.78;96872.44;1738393;82;20126;-81
2021/05/27 11:58:05;;;;;;;;;;;;;;;24.04;43.95;96854.52;1746723;82;20186;-79
2021/05/27 12:00:32;;;;;;;;;;;;;;;24.31;43.35;96846.59;1746939;82;20209;-81
2021/05/27 12:02:59;;;;;;;;;;;;;;;24.37;43.00;96850.28;1746805;82;20150;-80
2021/05/27 12:05:28;;;;;;;;;;;;;;;24.52;42.98;96849.13;1720853;82;20189;-79
2021/05/27 12:08:06;;;;;;;;;;;;;;;24.68;42.43;96838.37;1743356;80;20195;-83
2021/05/27 12:10:37;;;;;;;;;;;;;;;24.82;42.03;96846.67;1724932;83;20167;-80
2021/05/27 12:13:07;;;;;;;;;;;;;;;24.92;41.40;96831.33;1733476;82;20168;-79
2021/05/27 12:15:33;;;;;;;;;;;;;;;25.10;41.29;96837.30;1715116;81;20188;-77
2021/05/27 12:17:59;;;;;;;;;;;;;;;25.23;41.39;96836.33;1716818;82;20168;-80
2021/05/27 12:20:31;;;;;;;;;;;;;;;25.16;40.04;96836.90;1717748;82;20144;-79
2021/05/27 12:23:09;;;;;;;;;;;;;;;25.20;40.73;96827.33;1715576;84;20151;-84
2021/05/27 12:25:37;;;;;;;;;;;;;;;25.43;40.47;96828.05;1722710;82;20496;-80
2021/05/27 12:28:07;;;;;;;;;;;;;;;25.68;39.66;96821.72;1715829;82;20188;-81
2021/05/27 12:30:35;;;;;;;;;;;;;;;25.72;38.51;96826.44;1714880;82;20149;-82
2021/05/27 12:33:04;;;;;;;;;;;;;;;25.72;40.34;96822.93;1717643;82;20149;-81
2021/05/27 12:35:32;;;;;;;;;;;;;;;25.53;39.39;96828.85;1715578;83;20251;-79
2021/05/27 12:38:00;;;;;;;;;;;;;;;25.14;40.19;96816.91;1753401;80;20203;-80
2021/05/27 12:40:31;;;;;;;;;;;;;;;24.93;40.78;96817.63;1791885;80;20218;-81
2021/05/27 12:43:00;;;;;;;;;;;;;;;25.04;41.24;96812.05;1789751;80;20476;-80
2021/05/27 12:45:32;;;;;;;;;;;;;;;25.21;40.70;96808.75;1762330;81;20516;-79
2021/05/27 12:48:07;;;;;;;;;;;;;;;25.33;40.88;96808.83;1762854;80;20535;-81
2021/05/27 12:50:37;;;;;;;;;;;;;;;25.45;40.27;96815.16;1761544;81;20237;-80
2021/05/27 12:53:04;;;;;;;;;;;;;;;25.33;40.23;96806.13;1743116;80;20241;-79
2021/05/27 12:55:33;;;;;;;;;;;;;;;25.28;40.73;96814.89;1756318;82;20153;-80
2021/05/27 12:58:00;;;;;;;;;;;;;;;25.18;40.67;96818.13;1759651;81;20173;-79
2021/05/27 13:00:27;;;;;;;;;;;;;;;25.20;41.03;96813.84;1762681;81;20224;-83